Time;durP1;ratioP1;P1;durP2;ratioP2;P2;SDS_P1;SDS_P2;PMS_P1;PMS_P2;Temp;Humidity;BMP_temperature;BMP_pressure;BME280_temperature;BME280_humidity;BME280_pressure;Samples;Min_cycle;Max_cycle;Signal;HPM_P1;HPM_P2
2022/10/14 00:00:33;;;;;;;31.05;24.83;;;;;;;12.96;100.00;101414.00;4992066;28;20035;-57
2022/10/14 00:02:59;;;;;;;31.00;24.65;;;;;;;12.94;100.00;101414.09;5007254;28;20384;-57
2022/10/14 00:05:24;;;;;;;27.70;23.20;;;;;;;12.98;100.00;101411.25;4991616;28;20045;-57
2022/10/14 00:07:52;;;;;;;28.35;23.15;;;;;;;12.98;100.00;101413.91;4992714;28;20030;-57
2022/10/14 00:10:17;;;;;;;32.03;24.63;;;;;;;12.94;100.00;101415.91;4992022;28;20033;-58
2022/10/14 00:12:43;;;;;;;27.70;23.95;;;;;;;12.96;100.00;101416.66;4990956;28;20026;-57
2022/10/14 00:15:09;;;;;;;31.10;24.52;;;;;;;12.96;100.00;101414.84;4991566;28;20533;-57
2022/10/14 00:17:35;;;;;;;27.63;23.85;;;;;;;12.98;100.00;101420.09;4974707;28;20553;-57
2022/10/14 00:20:06;;;;;;;28.73;23.15;;;;;;;12.97;100.00;101423.75;4990665;28;20046;-57
2022/10/14 00:22:32;;;;;;;28.95;24.63;;;;;;;12.96;100.00;101420.19;4974756;28;20108;-56
2022/10/14 00:24:57;;;;;;;30.00;24.25;;;;;;;12.98;100.00;101421.94;4973359;28;20035;-58
2022/10/14 00:27:25;;;;;;;30.73;24.10;;;;;;;12.90;100.00;101395.69;4990738;28;20073;-57
2022/10/14 00:29:50;;;;;;;26.75;23.80;;;;;;;12.99;100.00;101404.94;4973115;28;20477;-57
2022/10/14 00:32:16;;;;;;;27.30;23.50;;;;;;;12.98;100.00;101405.91;4990972;28;20042;-57
2022/10/14 00:34:41;;;;;;;30.90;24.45;;;;;;;12.96;100.00;101403.31;4973217;28;20026;-58
2022/10/14 00:37:07;;;;;;;28.27;24.30;;;;;;;12.98;100.00;101400.56;4974780;28;20393;-57
2022/10/14 00:39:32;;;;;;;35.22;24.67;;;;;;;12.98;100.00;101397.88;5005503;28;20038;-57
2022/10/14 00:41:57;;;;;;;27.02;23.75;;;;;;;13.00;100.00;101394.16;4991674;28;20699;-57
2022/10/14 00:44:23;;;;;;;31.75;24.70;;;;;;;13.00;100.00;101391.50;4990583;28;20062;-57
2022/10/14 00:46:53;;;;;;;35.63;26.00;;;;;;;12.99;100.00;101389.75;4991512;28;20072;-57
2022/10/14 00:49:18;;;;;;;29.85;26.23;;;;;;;12.98;100.00;101389.88;4991130;28;20026;-57
2022/10/14 00:51:48;;;;;;;35.67;26.50;;;;;;;13.01;100.00;101384.34;4991643;28;20395;-57
2022/10/14 00:54:16;;;;;;;34.38;27.05;;;;;;;12.88;100.00;101374.47;4991467;28;20031;-57
2022/10/14 00:56:44;;;;;;;31.83;26.13;;;;;;;12.96;100.00;101376.63;4991430;28;20152;-57
2022/10/14 00:59:11;;;;;;;31.33;25.10;;;;;;;12.97;100.00;101378.34;4991520;28;20026;-57
2022/10/14 01:01:36;;;;;;;34.72;26.95;;;;;;;12.96;100.00;101374.78;4991558;28;20034;-57
2022/10/14 01:04:02;;;;;;;35.47;27.25;;;;;;;12.95;100.00;101369.56;4990806;28;20036;-57
2022/10/14 01:06:52;;;;;;;34.55;26.73;;;;;;;12.94;100.00;101368.72;4973833;28;20035;-57
2022/10/14 01:09:29;;;;;;;;;;;;;;;13.02;100.00;101364.69;4991541;28;20041;-57
2022/10/14 01:12:10;;;;;;;35.05;27.35;;;;;;;12.96;100.00;101369.44;4990970;28;19969;-57
2022/10/14 01:14:52;;;;;;;36.05;27.23;;;;;;;12.98;100.00;101360.50;4991106;28;20033;-57
2022/10/14 01:17:30;;;;;;;33.05;25.52;;;;;;;12.99;100.00;101371.06;4991666;28;20022;-57
2022/10/14 01:20:10;;;;;;;29.73;25.08;;;;;;;13.00;100.00;101372.81;4990547;28;20477;-57
2022/10/14 01:22:45;;;;;;;33.17;26.60;;;;;;;13.00;100.00;101350.56;4990976;28;20390;-57
2022/10/14 01:25:52;;;;;;;30.05;26.33;;;;;;;12.94;100.00;101336.69;4991040;28;20452;-57
2022/10/14 01:28:23;;;;;;;33.42;26.80;;;;;;;12.94;100.00;101339.34;4990924;28;20068;-57
2022/10/14 01:30:57;;;;;;;36.83;26.95;;;;;;;12.95;100.00;101338.38;4990951;28;20514;-57
2022/10/14 01:33:25;;;;;;;36.05;27.25;;;;;;;12.91;100.00;101336.88;4997943;28;20044;-57
2022/10/14 01:36:19;;;;;;;34.53;27.27;;;;;;;12.92;100.00;101335.06;5009971;28;20141;-56
2022/10/14 01:38:50;;;;;;;32.45;27.50;;;;;;;12.80;100.00;101323.38;4998864;28;20435;-57
2022/10/14 01:41:26;;;;;;;34.85;27.10;;;;;;;12.79;100.00;101318.97;4990712;28;20079;-57
2022/10/14 01:43:54;;;;;;;34.50;27.67;;;;;;;12.77;100.00;101306.69;4989164;28;20038;-57
2022/10/14 01:46:25;;;;;;;39.08;28.70;;;;;;;12.80;100.00;101307.34;4988836;28;20130;-57
2022/10/14 01:48:58;;;;;;;32.42;28.02;;;;;;;12.79;100.00;101315.44;4990008;28;20573;-57
2022/10/14 01:51:35;;;;;;;41.42;28.90;;;;;;;12.76;100.00;101304.97;5006505;28;20374;-56
2022/10/14 01:54:10;;;;;;;33.90;27.77;;;;;;;12.77;100.00;101312.88;4970699;28;20038;-56
2022/10/14 01:56:36;;;;;;;36.20;29.33;;;;;;;12.66;100.00;101300.22;4970914;28;20054;-57
2022/10/14 01:59:03;;;;;;;38.28;29.83;;;;;;;12.76;100.00;101308.47;4971032;28;20026;-57
2022/10/14 02:01:28;;;;;;;38.83;29.02;;;;;;;12.75;100.00;101313.94;4988831;28;20030;-56
2022/10/14 02:03:54;;;;;;;35.35;27.58;;;;;;;12.75;100.00;101305.94;4989666;28;20053;-56
2022/10/14 02:06:19;;;;;;;36.63;27.67;;;;;;;12.77;100.00;101310.22;4972373;28;20039;-57
2022/10/14 02:08:53;;;;;;;36.60;28.67;;;;;;;12.77;100.00;101309.38;4989230;28;20416;-57
2022/10/14 02:11:21;;;;;;;37.60;28.50;;;;;;;12.76;100.00;101305.81;4989709;28;20362;-56
2022/10/14 02:14:20;;;;;;;36.72;29.27;;;;;;;12.80;100.00;101302.00;4989255;28;20034;-57
2022/10/14 02:16:50;;;;;;;35.75;27.48;;;;;;;12.80;100.00;101296.66;4989591;28;20133;-57
2022/10/14 02:19:37;;;;;;;37.17;27.92;;;;;;;12.82;100.00;101292.06;4988684;28;20466;-58
2022/10/14 02:22:19;;;;;;;37.70;28.73;;;;;;;12.80;100.00;101299.34;4979523;28;20091;-56
2022/10/14 02:24:51;;;;;;;43.92;29.17;;;;;;;12.75;100.00;101289.91;4976640;28;20027;-57
2022/10/14 02:27:20;;;;;;;34.33;27.15;;;;;;;12.79;100.00;101297.59;4977305;28;20034;-57
2022/10/14 02:29:47;;;;;;;37.47;27.98;;;;;;;12.81;100.00;101290.38;4988862;28;20389;-57
2022/10/14 02:32:15;;;;;;;34.60;27.63;;;;;;;12.79;100.00;101292.28;4989447;28;20109;-58
2022/10/14 02:34:47;;;;;;;39.63;27.77;;;;;;;12.79;100.00;101289.59;4971520;28;20045;-57
2022/10/14 02:37:15;;;;;;;39.75;28.00;;;;;;;12.79;100.00;101294.09;4989511;28;20084;-57
2022/10/14 02:39:47;;;;;;;41.47;28.80;;;;;;;12.83;100.00;101292.94;4989049;28;20099;-58
2022/10/14 02:42:13;;;;;;;41.65;27.98;;;;;;;12.84;100.00;101284.81;4988631;28;20034;-57
2022/10/14 02:44:54;;;;;;;42.70;28.30;;;;;;;12.87;100.00;101289.97;4968741;28;20068;-57
2022/10/14 02:47:20;;;;;;;42.03;28.65;;;;;;;12.88;100.00;101289.03;4978788;28;20108;-57
2022/10/14 02:49:46;;;;;;;43.63;27.40;;;;;;;12.88;100.00;101282.81;4988690;28;20030;-57
2022/10/14 02:52:11;;;;;;;49.13;28.42;;;;;;;12.88;100.00;101280.13;4971357;28;20053;-57
2022/10/14 02:54:39;;;;;;;50.80;29.27;;;;;;;12.85;100.00;101278.56;4988446;28;20029;-57
2022/10/14 02:57:04;;;;;;;45.38;29.23;;;;;;;12.84;100.00;101273.28;4971950;28;20038;-57
2022/10/14 02:59:32;;;;;;;43.50;27.48;;;;;;;12.86;100.00;101272.25;4988893;28;20519;-57
2022/10/14 03:01:58;;;;;;;49.45;27.73;;;;;;;12.81;100.00;101265.50;4988201;28;20038;-57
2022/10/14 03:04:23;;;;;;;43.88;26.52;;;;;;;12.86;100.00;101258.91;4969198;28;20037;-58
2022/10/14 03:06:49;;;;;;;42.90;26.20;;;;;;;12.86;100.00;101258.91;4970719;28;20023;-58
2022/10/14 03:09:15;;;;;;;39.28;26.27;;;;;;;12.88;100.00;101258.78;4980126;28;20060;-57
2022/10/14 03:11:41;;;;;;;39.20;26.20;;;;;;;12.89;100.00;101253.34;4981530;28;20038;-57
2022/10/14 03:14:06;;;;;;;37.95;25.83;;;;;;;12.90;100.00;101249.72;4996478;28;20401;-57
2022/10/14 03:16:32;;;;;;;36.55;24.92;;;;;;;12.90;100.00;101248.88;4981707;28;20037;-58
2022/10/14 03:18:58;;;;;;;42.88;26.17;;;;;;;12.94;100.00;101253.91;4970668;28;20018;-58
2022/10/14 03:21:23;;;;;;;36.97;26.35;;;;;;;12.95;100.00;101249.44;4979313;28;20022;-56
2022/10/14 03:23:49;;;;;;;39.83;26.38;;;;;;;12.94;100.00;101237.91;4982050;28;20117;-58
2022/10/14 03:26:17;;;;;;;34.17;25.02;;;;;;;12.94;100.00;101242.34;4978721;28;20088;-57
2022/10/14 03:28:43;;;;;;;36.88;25.48;;;;;;;12.95;100.00;101247.59;4970173;28;20049;-57
2022/10/14 03:31:08;;;;;;;39.38;24.95;;;;;;;12.92;100.00;101239.81;4988055;28;20485;-57
2022/10/14 03:33:34;;;;;;;40.85;24.35;;;;;;;12.92;100.00;101238.94;4952437;28;20058;-57
2022/10/14 03:36:00;;;;;;;33.53;23.63;;;;;;;12.90;100.00;101230.19;4952277;28;20038;-57
2022/10/14 03:38:25;;;;;;;35.67;24.83;;;;;;;12.93;100.00;101225.47;4969875;28;20031;-57
2022/10/14 03:40:53;;;;;;;37.95;24.55;;;;;;;12.94;100.00;101232.56;4969931;28;20573;-58
2022/10/14 03:43:21;;;;;;;37.67;24.83;;;;;;;12.94;100.00;101229.88;4971942;28;21638;-57
2022/10/14 03:45:46;;;;;;;37.97;23.63;;;;;;;12.93;100.00;101228.16;4970585;28;20030;-57
2022/10/14 03:48:12;;;;;;;32.80;23.40;;;;;;;12.94;100.00;101221.88;4981158;28;20049;-57
2022/10/14 03:50:42;;;;;;;36.95;24.08;;;;;;;12.94;100.00;101216.53;4977130;28;20030;-57
2022/10/14 03:53:08;;;;;;;31.25;23.13;;;;;;;12.94;100.00;101218.31;4952397;28;20077;-57
2022/10/14 03:55:34;;;;;;;27.80;22.02;;;;;;;12.92;100.00;101225.59;4952255;28;20038;-57
2022/10/14 03:58:00;;;;;;;29.58;22.70;;;;;;;12.92;100.00;101218.44;4960730;28;20043;-57
2022/10/14 04:00:25;;;;;;;30.38;22.10;;;;;;;12.91;100.00;101215.84;4984641;28;20041;-57
2022/10/14 04:02:51;;;;;;;29.85;21.92;;;;;;;12.94;100.00;101215.66;4969500;28;20116;-57
2022/10/14 04:05:19;;;;;;;30.40;21.42;;;;;;;12.92;100.00;101215.78;4986163;28;20038;-57
2022/10/14 04:07:44;;;;;;;30.63;22.02;;;;;;;12.92;100.00;101210.44;4970332;28;20057;-57
2022/10/14 04:10:10;;;;;;;27.98;20.95;;;;;;;12.95;100.00;101201.38;4979862;28;20481;-57
2022/10/14 04:12:35;;;;;;;25.70;20.00;;;;;;;12.98;100.00;101202.97;4992707;28;20079;-57
2022/10/14 04:15:00;;;;;;;27.35;19.33;;;;;;;12.94;100.00;101202.31;4973580;28;20489;-57
2022/10/14 04:17:26;;;;;;;25.50;19.92;;;;;;;12.95;100.00;101204.03;4988146;28;20369;-57
2022/10/14 04:19:52;;;;;;;24.00;19.75;;;;;;;12.86;100.00;101194.81;4985011;28;20031;-57
2022/10/14 04:22:18;;;;;;;27.75;19.75;;;;;;;12.98;100.00;101209.16;4982745;28;20085;-56
2022/10/14 04:24:44;;;;;;;27.50;19.98;;;;;;;12.99;100.00;101200.19;4974774;28;20042;-58
2022/10/14 04:27:09;;;;;;;24.13;18.75;;;;;;;13.00;100.00;101198.38;4991059;28;20385;-57
2022/10/14 04:29:35;;;;;;;26.80;19.00;;;;;;;12.99;100.00;101192.19;4991066;28;20026;-57
2022/10/14 04:32:00;;;;;;;24.83;19.38;;;;;;;12.97;100.00;101191.44;4990541;28;20038;-57
2022/10/14 04:34:25;;;;;;;25.02;18.23;;;;;;;13.01;100.00;101200.09;4976599;28;20034;-56
2022/10/14 04:36:52;;;;;;;24.23;18.90;;;;;;;13.00;100.00;101193.03;4986502;28;20056;-56
2022/10/14 04:39:17;;;;;;;21.63;17.67;;;;;;;12.91;100.00;101178.47;4990102;28;20554;-57
2022/10/14 04:41:43;;;;;;;21.80;17.20;;;;;;;12.99;100.00;101181.50;4991060;28;20121;-57
2022/10/14 04:44:09;;;;;;;22.60;17.52;;;;;;;12.98;100.00;101187.81;4963334;28;20500;-56
2022/10/14 04:46:34;;;;;;;22.20;17.48;;;;;;;12.91;100.00;101176.69;4972305;28;20039;-57
2022/10/14 04:49:02;;;;;;;24.20;17.15;;;;;;;12.96;100.00;101182.56;4981327;28;20093;-56
2022/10/14 04:51:27;;;;;;;21.50;16.80;;;;;;;12.94;100.00;101171.16;4991143;28;20034;-57
2022/10/14 04:53:53;;;;;;;20.85;16.95;;;;;;;12.97;100.00;101178.09;4947141;28;20481;-57
2022/10/14 04:56:18;;;;;;;21.17;16.90;;;;;;;12.96;100.00;101174.53;4991135;28;20542;-57
2022/10/14 04:58:44;;;;;;;19.08;16.20;;;;;;;12.93;100.00;101168.56;5009614;28;20033;-56
2022/10/14 05:01:09;;;;;;;18.90;15.93;;;;;;;12.95;100.00;101174.66;4993653;28;20035;-57
2022/10/14 05:03:35;;;;;;;22.70;16.02;;;;;;;12.94;100.00;101175.59;4974786;28;20035;-56
2022/10/14 05:06:00;;;;;;;19.77;15.68;;;;;;;12.94;100.00;101170.25;4991196;28;20031;-57
2022/10/14 05:08:26;;;;;;;18.60;15.57;;;;;;;12.94;100.00;101170.25;4991463;28;20030;-57
2022/10/14 05:10:53;;;;;;;18.98;14.77;;;;;;;12.94;100.00;101170.25;4991244;28;20023;-57
2022/10/14 05:13:19;;;;;;;19.50;15.43;;;;;;;12.94;100.00;101168.47;4991016;28;20030;-57
2022/10/14 05:15:45;;;;;;;18.13;14.63;;;;;;;12.95;100.00;101155.97;4991723;28;20061;-57
2022/10/14 05:18:11;;;;;;;20.55;15.18;;;;;;;12.95;100.00;101155.97;4973752;28;20027;-57
2022/10/14 05:20:37;;;;;;;19.98;14.40;;;;;;;12.95;100.00;101146.16;4991007;28;20068;-57
2022/10/14 05:23:03;;;;;;;15.65;14.05;;;;;;;12.96;100.00;101149.66;5058497;28;20038;-57
2022/10/14 05:25:29;;;;;;;15.63;13.90;;;;;;;12.95;100.00;101151.50;4973344;28;20496;-57
2022/10/14 05:27:54;;;;;;;16.30;14.15;;;;;;;12.96;100.00;101145.16;4990793;28;20034;-57
2022/10/14 05:30:22;;;;;;;16.67;13.88;;;;;;;12.94;100.00;101146.22;4990760;28;20033;-57
2022/10/14 05:32:48;;;;;;;17.70;13.38;;;;;;;12.93;100.00;101137.38;5009263;28;20033;-57
2022/10/14 05:35:14;;;;;;;15.15;13.40;;;;;;;12.90;100.00;101120.72;5009800;28;20080;-56
2022/10/14 05:37:40;;;;;;;14.55;12.43;;;;;;;12.94;100.00;101128.44;4992902;28;20033;-57
2022/10/14 05:40:06;;;;;;;13.82;12.40;;;;;;;12.91;100.00;101122.41;4980547;28;20030;-56
2022/10/14 05:42:31;;;;;;;14.20;12.70;;;;;;;12.96;100.00;101134.50;4990716;28;20060;-57
2022/10/14 05:44:57;;;;;;;14.27;12.82;;;;;;;12.96;100.00;101123.81;4973337;28;20038;-57
2022/10/14 05:47:24;;;;;;;14.48;12.90;;;;;;;12.95;100.00;101118.59;4989155;28;20065;-57
2022/10/14 05:49:50;;;;;;;18.23;12.35;;;;;;;12.96;100.00;101122.97;5003695;28;20443;-57
2022/10/14 05:52:18;;;;;;;13.82;12.38;;;;;;;12.96;100.00;101114.97;4972222;28;20083;-56
2022/10/14 05:54:43;;;;;;;18.13;13.38;;;;;;;12.94;100.00;101109.75;4989479;28;20116;-56
2022/10/14 05:57:09;;;;;;;13.38;11.88;;;;;;;12.88;100.00;101098.59;4990245;28;20499;-56
2022/10/14 05:59:34;;;;;;;13.73;12.30;;;;;;;12.95;100.00;101115.94;4989679;28;20035;-57
2022/10/14 06:02:00;;;;;;;13.88;12.40;;;;;;;12.89;100.00;101103.84;4989188;28;20031;-57
2022/10/14 06:04:26;;;;;;;15.48;12.38;;;;;;;12.96;100.00;101110.47;4989968;28;20041;-56
2022/10/14 06:06:52;;;;;;;14.98;11.85;;;;;;;12.97;100.00;101111.34;4969308;28;20042;-57
2022/10/14 06:09:17;;;;;;;15.23;11.93;;;;;;;12.99;100.00;101116.56;4989410;28;20042;-57
2022/10/14 06:11:43;;;;;;;15.68;12.95;;;;;;;12.95;100.00;101108.78;4979201;28;20057;-58
2022/10/14 06:14:10;;;;;;;14.40;12.10;;;;;;;12.95;100.00;101103.44;4970624;28;20468;-57
2022/10/14 06:16:35;;;;;;;15.00;12.70;;;;;;;12.93;100.00;101101.81;4970547;28;20183;-59
2022/10/14 06:19:01;;;;;;;16.70;12.50;;;;;;;12.96;100.00;101093.59;4960197;28;20145;-57
2022/10/14 06:21:26;;;;;;;13.77;12.23;;;;;;;12.98;100.00;101094.34;4970440;28;20486;-56
2022/10/14 06:23:51;;;;;;;12.98;11.57;;;;;;;13.00;100.00;101096.91;4973657;28;20042;-56
2022/10/14 06:26:17;;;;;;;12.82;11.50;;;;;;;13.00;100.00;101094.22;5003861;28;20536;-56
2022/10/14 06:28:42;;;;;;;12.95;11.35;;;;;;;13.02;100.00;101095.84;4987758;28;20033;-56
2022/10/14 06:31:08;;;;;;;16.55;11.70;;;;;;;13.02;100.00;101095.84;4980320;28;20040;-56
2022/10/14 06:33:34;;;;;;;13.80;11.43;;;;;;;12.98;100.00;101088.16;4954790;28;20128;-56
2022/10/14 06:36:04;;;;;;;12.73;11.52;;;;;;;13.03;100.00;101089.56;4971406;28;20060;-56
2022/10/14 06:38:30;;;;;;;15.50;11.45;;;;;;;13.05;100.00;101094.78;4988410;28;20041;-56
2022/10/14 06:40:55;;;;;;;13.98;11.82;;;;;;;13.09;100.00;101080.28;4979327;28;20042;-56
2022/10/14 06:43:21;;;;;;;14.20;11.18;;;;;;;13.07;100.00;101088.38;4968887;28;20113;-57
2022/10/14 06:45:50;;;;;;;13.30;11.90;;;;;;;13.02;100.00;101079.81;4969918;28;20393;-57
2022/10/14 06:48:15;;;;;;;14.00;12.27;;;;;;;13.05;100.00;101095.63;4987147;28;20109;-57
2022/10/14 06:50:41;;;;;;;14.32;11.50;;;;;;;13.03;100.00;101075.31;4989361;28;20372;-56
2022/10/14 06:53:07;;;;;;;13.13;11.60;;;;;;;13.06;100.00;101086.69;4971691;28;20030;-57
2022/10/14 06:55:33;;;;;;;16.40;11.60;;;;;;;13.05;100.00;101084.09;4989437;28;20388;-56
2022/10/14 06:57:58;;;;;;;14.88;12.02;;;;;;;13.10;100.00;101087.31;4989475;28;20018;-57
2022/10/14 07:00:24;;;;;;;15.02;11.90;;;;;;;13.11;100.00;101084.50;4955782;28;20447;-57
2022/10/14 07:02:49;;;;;;;15.75;11.75;;;;;;;13.12;100.00;101080.06;4981316;28;20046;-56
2022/10/14 07:05:15;;;;;;;14.68;12.55;;;;;;;13.04;100.00;101051.19;4971571;28;20073;-57
2022/10/14 07:07:40;;;;;;;13.57;12.18;;;;;;;13.12;100.00;101064.88;4955521;28;20087;-57
2022/10/14 07:10:06;;;;;;;13.82;12.13;;;;;;;13.12;100.00;101067.56;4969791;28;20035;-57
2022/10/14 07:12:31;;;;;;;14.05;11.70;;;;;;;13.11;100.00;101057.81;4959463;28;20065;-57
2022/10/14 07:14:57;;;;;;;15.23;11.88;;;;;;;13.15;100.00;101059.31;4975195;28;20080;-56
2022/10/14 07:17:23;;;;;;;13.90;11.27;;;;;;;13.17;100.00;101060.03;4968333;28;20022;-57
2022/10/14 07:19:48;;;;;;;12.93;11.57;;;;;;;13.19;100.00;101068.81;4998451;28;20386;-56
2022/10/14 07:22:15;;;;;;;13.77;11.60;;;;;;;13.14;100.00;101065.59;4959202;28;20055;-57
2022/10/14 07:24:49;;;;;;;14.27;12.50;;;;;;;13.20;100.00;101077.66;4969692;28;20038;-56
2022/10/14 07:27:19;;;;;;;14.15;12.07;;;;;;;13.24;100.00;101087.19;4968651;28;20430;-56
2022/10/14 07:29:44;;;;;;;14.88;11.27;;;;;;;13.25;100.00;101080.03;4953423;28;20081;-56
2022/10/14 07:32:10;;;;;;;13.15;11.75;;;;;;;13.27;100.00;101080.81;4969883;28;20030;-56
2022/10/14 07:34:35;;;;;;;12.98;11.20;;;;;;;13.29;100.00;101089.56;4969688;28;20031;-57
2022/10/14 07:37:03;;;;;;;12.68;11.32;;;;;;;13.29;100.00;101086.88;4951930;28;20110;-56
2022/10/14 07:39:29;;;;;;;14.05;11.80;;;;;;;13.30;100.00;101080.59;4952389;28;20039;-56
2022/10/14 07:41:54;;;;;;;15.73;11.43;;;;;;;13.29;100.00;101073.53;4969223;28;20130;-56
2022/10/14 07:44:21;;;;;;;12.07;10.88;;;;;;;13.31;100.00;101075.13;4967314;28;20038;-57
2022/10/14 07:46:46;;;;;;;13.13;11.27;;;;;;;13.33;100.00;101078.56;4977470;28;20074;-57
2022/10/14 07:49:18;;;;;;;13.43;11.38;;;;;;;13.32;100.00;101075.97;4979675;28;20026;-57
2022/10/14 07:51:45;;;;;;;13.25;11.85;;;;;;;13.36;100.00;101073.00;4971779;28;20030;-56
2022/10/14 07:54:14;;;;;;;12.88;11.13;;;;;;;13.39;100.00;101063.91;4990832;28;20065;-56
2022/10/14 07:56:41;;;;;;;14.68;11.40;;;;;;;13.43;100.00;101076.09;4991563;28;20485;-56
2022/10/14 07:59:07;;;;;;;13.20;11.80;;;;;;;13.44;100.00;101077.78;4991357;28;20110;-56
2022/10/14 08:01:36;;;;;;;12.88;11.57;;;;;;;13.49;100.00;101069.44;5005028;28;20110;-57
2022/10/14 08:04:02;;;;;;;13.30;11.68;;;;;;;13.51;100.00;101063.03;4984094;28;20110;-57
2022/10/14 08:06:27;;;;;;;13.10;11.70;;;;;;;13.52;100.00;101058.53;4990704;28;20503;-57
2022/10/14 08:08:53;;;;;;;13.07;11.73;;;;;;;13.55;100.00;101061.00;4973849;28;20039;-56
2022/10/14 08:11:22;;;;;;;13.80;12.18;;;;;;;13.57;100.00;101062.59;4974128;28;20030;-57
2022/10/14 08:13:49;;;;;;;13.15;11.75;;;;;;;13.62;100.00;101067.63;4991149;28;20026;-56
2022/10/14 08:16:16;;;;;;;14.27;11.70;;;;;;;13.63;100.00;101063.97;4973952;28;20427;-57
2022/10/14 08:18:42;;;;;;;14.38;11.73;;;;;;;13.67;100.00;101060.09;4990392;28;20034;-57
2022/10/14 08:21:09;;;;;;;12.32;11.10;;;;;;;13.71;100.00;101048.22;4972773;28;20030;-57
2022/10/14 08:23:35;;;;;;;15.35;11.43;;;;;;;13.72;100.00;101049.94;4972575;28;20062;-57
2022/10/14 08:26:00;;;;;;;11.95;10.73;;;;;;;13.71;100.00;101040.22;4990582;28;20026;-56
2022/10/14 08:28:28;;;;;;;14.48;11.70;;;;;;;13.78;100.00;101046.81;4990660;28;20026;-57
2022/10/14 08:30:54;;;;;;;14.90;11.98;;;;;;;13.82;100.00;101050.97;4990859;28;20068;-57
2022/10/14 08:33:19;;;;;;;12.25;10.63;;;;;;;13.78;100.00;101045.94;4990897;28;20034;-57
2022/10/14 08:35:45;;;;;;;13.65;11.70;;;;;;;13.81;100.00;101045.72;4990479;28;20389;-57
2022/10/14 08:38:11;;;;;;;13.63;10.98;;;;;;;13.82;100.00;101060.78;4991207;28;20034;-57
2022/10/14 08:41:06;;;;;;;12.40;11.00;;;;;;;13.86;100.00;101056.94;4989958;28;20034;-57
2022/10/14 08:43:46;;;;;;;13.30;11.60;;;;;;;13.81;100.00;101049.25;4984057;28;20424;-57
2022/10/14 08:46:33;;;;;;;13.20;11.85;;;;;;;13.88;100.00;101048.78;4990523;28;20030;-58
2022/10/14 08:49:10;;;;;;;11.80;10.60;;;;;;;13.90;100.00;101057.56;4971837;28;20042;-57
2022/10/14 08:51:37;;;;;;;13.05;11.10;;;;;;;13.93;100.00;101046.66;4973725;28;20040;-57
2022/10/14 08:54:14;;;;;;;13.15;11.13;;;;;;;13.92;100.00;101043.13;4973240;28;20497;-57
2022/10/14 08:56:41;;;;;;;12.43;10.95;;;;;;;13.97;100.00;101040.97;4973113;28;20037;-58
2022/10/14 08:59:14;;;;;;;12.73;11.43;;;;;;;14.04;100.00;101052.91;4972268;28;20392;-57
2022/10/14 09:01:58;;;;;;;13.93;11.68;;;;;;;14.07;100.00;101059.84;4986322;28;20035;-57
2022/10/14 09:04:23;;;;;;;11.90;10.70;;;;;;;14.07;100.00;101043.81;4987743;28;20038;-57
2022/10/14 09:06:50;;;;;;;12.65;10.27;;;;;;;14.03;100.00;101039.63;4968651;28;20547;-57
2022/10/14 09:09:22;;;;;;;12.13;10.85;;;;;;;14.07;100.00;101046.47;4980239;28;20432;-57
2022/10/14 09:12:12;;;;;;;12.52;9.85;;;;;;;14.17;100.00;101038.59;4991152;28;20044;-57
2022/10/14 09:14:45;;;;;;;11.60;10.43;;;;;;;14.12;100.00;101043.44;4972819;28;20046;-57
2022/10/14 09:17:23;;;;;;;12.60;11.30;;;;;;;14.12;100.00;101043.44;4964910;28;20018;-57
2022/10/14 09:20:24;;;;;;;11.20;9.85;;;;;;;14.12;100.00;101040.75;4988132;28;20033;-56
2022/10/14 09:22:56;;;;;;;13.68;10.52;;;;;;;14.06;100.00;101029.59;4995489;28;20057;-57
2022/10/14 09:25:22;;;;;;;11.65;9.70;;;;;;;14.12;100.00;101033.63;4972696;28;20043;-57
2022/10/14 09:27:51;;;;;;;12.52;9.95;;;;;;;14.09;100.00;101029.34;4971308;28;20042;-57
2022/10/14 09:30:17;;;;;;;13.57;9.10;;;;;;;14.14;100.00;101028.97;4954378;28;20062;-57
2022/10/14 09:32:53;;;;;;;11.45;9.48;;;;;;;14.14;100.00;101023.63;4971531;28;20025;-57
2022/10/14 09:35:28;;;;;;;13.73;10.38;;;;;;;14.11;100.00;101015.00;4971090;28;20470;-56
2022/10/14 09:37:55;;;;;;;11.15;10.13;;;;;;;14.17;100.00;101027.91;4969261;28;20057;-57
2022/10/14 09:40:28;;;;;;;11.40;9.35;;;;;;;14.17;100.00;101022.56;4970815;28;20105;-57
2022/10/14 09:43:02;;;;;;;11.15;8.63;;;;;;;14.16;100.00;101027.06;4971852;28;20029;-57
2022/10/14 09:45:45;;;;;;;9.43;8.40;;;;;;;14.18;100.00;101017.09;4971280;28;20025;-56
2022/10/14 09:48:33;;;;;;;11.73;8.73;;;;;;;14.22;100.00;101025.75;4969048;28;20144;-57
2022/10/14 09:51:04;;;;;;;9.35;8.35;;;;;;;14.22;100.00;101020.41;4971089;28;20038;-57
2022/10/14 09:53:36;;;;;;;9.70;8.75;;;;;;;14.24;100.00;101019.31;4971006;28;20083;-57
2022/10/14 09:56:04;;;;;;;10.52;9.27;;;;;;;14.22;100.00;101026.59;4968118;28;20035;-57
2022/10/14 09:58:38;;;;;;;10.40;8.85;;;;;;;14.18;100.00;101006.41;4969190;28;20525;-58
2022/10/14 10:01:05;;;;;;;10.90;8.73;;;;;;;14.26;100.00;101012.00;4960785;28;20050;-56
2022/10/14 10:03:33;;;;;;;10.52;9.30;;;;;;;14.27;100.00;101011.06;4969241;28;20038;-56
2022/10/14 10:06:08;;;;;;;10.35;8.80;;;;;;;14.30;100.00;101005.47;4970674;28;20038;-57
2022/10/14 10:08:39;;;;;;;10.80;9.05;;;;;;;14.33;100.00;101012.41;4969858;28;20427;-57
2022/10/14 10:11:10;;;;;;;10.98;9.88;;;;;;;14.30;100.00;101007.28;4969803;28;20030;-57
2022/10/14 10:13:45;;;;;;;10.85;9.73;;;;;;;14.31;100.00;101011.66;4970885;28;20031;-57
2022/10/14 10:16:30;;;;;;;11.63;9.90;;;;;;;14.27;100.00;100999.50;4962949;28;20020;-57
2022/10/14 10:18:56;;;;;;;12.07;10.10;;;;;;;14.29;100.00;101003.78;4950807;28;20035;-56
2022/10/14 10:21:24;;;;;;;11.80;10.60;;;;;;;14.28;100.00;101004.72;4950743;28;20020;-56
2022/10/14 10:23:54;;;;;;;10.68;9.63;;;;;;;14.30;100.00;100999.28;4975384;28;20030;-56
2022/10/14 10:26:26;;;;;;;10.98;9.50;;;;;;;14.31;100.00;100999.13;4989666;28;20509;-57
2022/10/14 10:28:53;;;;;;;10.80;9.65;;;;;;;14.32;100.00;100998.19;4972463;28;20061;-57
2022/10/14 10:31:29;;;;;;;11.98;10.77;;;;;;;14.34;100.00;100989.19;4990214;28;20050;-56
2022/10/14 10:34:13;;;;;;;12.18;9.80;;;;;;;14.28;100.00;100980.66;4989171;28;20038;-57
2022/10/14 10:36:49;;;;;;;10.73;9.55;;;;;;;14.31;100.00;100983.09;4990086;28;20014;-57
2022/10/14 10:40:10;;;;;;;10.85;9.60;;;;;;;14.43;100.00;100988.47;4989596;28;20022;-57
2022/10/14 10:43:15;;;;;;;10.02;8.85;;;;;;;14.47;100.00;100988.13;4985615;28;20038;-57
2022/10/14 10:46:03;;;;;;;12.20;8.55;;;;;;;14.53;100.00;100984.16;4970451;28;20106;-57
2022/10/14 10:48:53;;;;;;;13.90;9.02;;;;;;;14.62;100.00;100979.88;4970540;28;20039;-57
2022/10/14 10:51:53;;;;;;;11.40;8.98;;;;;;;14.58;100.00;100976.59;4970522;28;20031;-57
2022/10/14 10:54:31;;;;;;;10.30;8.88;;;;;;;14.56;100.00;100975.00;4987984;28;20462;-57
2022/10/14 10:57:04;;;;;;;9.63;7.97;;;;;;;14.57;100.00;100982.94;4989652;28;20037;-57
2022/10/14 10:59:45;;;;;;;11.35;8.02;;;;;;;14.53;100.00;100976.13;4989592;28;20522;-57
2022/10/14 11:02:38;;;;;;;8.70;7.90;;;;;;;14.57;100.00;100979.41;4989861;28;20482;-57
2022/10/14 11:05:27;;;;;;;9.50;8.43;;;;;;;14.61;100.00;100967.47;4952638;28;20569;-57
2022/10/14 11:12:01;;;;;;;8.15;7.45;;;;;;;14.57;100.00;100964.19;4970510;28;20507;-57
2022/10/14 11:14:36;;;;;;;9.30;8.40;;;;;;;14.56;100.00;100953.59;4987373;28;20034;-57
2022/10/14 11:17:20;;;;;;;9.98;8.93;;;;;;;14.58;100.00;100960.53;4988959;28;20023;-57
2022/10/14 11:19:57;;;;;;;11.07;10.07;;;;;;;14.54;100.00;100959.09;4988753;28;20451;-57